createdAt,value
2023-05-05T00:01:21.920Z,96487.50
2023-05-05T00:02:53.946Z,96493.31
2023-05-05T00:04:25.826Z,96490.75
2023-05-05T00:05:58.159Z,96497.25
2023-05-05T00:07:30.021Z,96496.09
2023-05-05T00:09:01.797Z,96498.44
2023-05-05T00:10:33.656Z,96489.47
2023-05-05T00:12:06.205Z,96494.94
2023-05-05T00:13:38.260Z,96490.34
2023-05-05T00:15:11.650Z,96499.41
2023-05-05T00:16:43.562Z,96489.03
2023-05-05T00:18:16.617Z,96490.44
2023-05-05T00:19:48.481Z,96491.84
2023-05-05T00:21:20.433Z,96490.13
2023-05-05T00:22:52.295Z,96489.09
2023-05-05T00:24:24.211Z,96488.31
2023-05-05T00:25:56.065Z,96494.97
2023-05-05T00:27:28.238Z,96490.94
2023-05-05T00:29:00.245Z,96492.72
2023-05-05T00:30:33.638Z,96491.16
2023-05-05T00:32:05.546Z,96488.13
2023-05-05T00:33:37.476Z,96493.19
2023-05-05T00:35:09.648Z,96486.25
2023-05-05T00:36:41.624Z,96491.56
2023-05-05T00:38:13.624Z,96489.38
2023-05-05T00:39:45.448Z,96486.69
2023-05-05T00:41:17.539Z,96492.38
2023-05-05T00:42:52.488Z,96487.03
2023-05-05T00:44:35.179Z,96484.81
2023-05-05T00:46:12.093Z,96487.72
2023-05-05T00:47:45.390Z,96487.97
2023-05-05T00:49:17.313Z,96495.19
2023-05-05T00:50:49.503Z,96488.63
2023-05-05T00:52:21.500Z,96484.00
2023-05-05T00:53:53.374Z,96480.13
2023-05-05T00:55:25.375Z,96478.75
2023-05-05T00:56:57.350Z,96484.53
2023-05-05T00:58:29.321Z,96482.56
2023-05-05T01:00:01.441Z,96486.78
2023-05-05T01:01:34.727Z,96475.25
2023-05-05T01:03:06.733Z,96482.16
2023-05-05T01:04:38.625Z,96475.25
2023-05-05T01:06:16.402Z,96483.22
2023-05-05T01:08:05.098Z,96479.56
2023-05-05T01:09:39.248Z,96471.53
2023-05-05T01:11:14.507Z,96484.88
2023-05-05T01:12:49.292Z,96476.72
2023-05-05T01:14:23.310Z,96488.06
2023-05-05T01:15:56.864Z,96489.59
2023-05-05T01:17:35.888Z,96490.06
2023-05-05T01:19:16.229Z,96487.44
2023-05-05T01:20:50.425Z,96494.59
2023-05-05T01:22:24.438Z,96488.59
2023-05-05T01:24:12.280Z,96485.22
2023-05-05T01:26:06.140Z,96490.28
2023-05-05T01:28:01.049Z,96487.72
2023-05-05T01:29:41.423Z,96484.09
2023-05-05T01:31:21.859Z,96486.97
2023-05-05T01:32:58.348Z,96497.53
2023-05-05T01:34:34.454Z,96496.84
2023-05-05T01:36:09.181Z,96500.41
2023-05-05T01:37:44.321Z,96491.81
2023-05-05T01:39:16.276Z,96497.84
2023-05-05T01:40:49.060Z,96495.22
2023-05-05T01:42:20.852Z,96497.19
2023-05-05T01:43:52.734Z,96490.31
2023-05-05T01:45:26.057Z,96501.06
2023-05-05T01:46:58.097Z,96491.91
2023-05-05T01:48:33.410Z,96493.56
2023-05-05T01:50:06.463Z,96487.72
2023-05-05T01:51:38.855Z,96486.59
2023-05-05T01:53:10.731Z,96485.19
2023-05-05T01:54:43.048Z,96492.38
2023-05-05T01:56:15.502Z,96495.34
2023-05-05T01:57:47.344Z,96484.63
2023-05-05T01:59:19.302Z,96488.97
2023-05-05T02:00:51.196Z,96483.16
2023-05-05T02:02:23.142Z,96488.81
2023-05-05T02:03:57.312Z,96488.38
2023-05-05T02:05:29.188Z,96492.19
2023-05-05T02:07:01.429Z,96494.31
2023-05-05T02:08:33.299Z,96484.88
2023-05-05T02:10:08.298Z,96493.38
2023-05-05T02:11:40.468Z,96494.22
2023-05-05T02:13:15.645Z,96493.81
2023-05-05T02:14:47.568Z,96488.69
2023-05-05T02:16:19.394Z,96486.25
2023-05-05T02:17:52.834Z,96490.03
2023-05-05T02:19:28.753Z,96491.00
2023-05-05T02:21:00.588Z,96496.94
2023-05-05T02:22:32.578Z,96489.94
2023-05-05T02:24:05.171Z,96495.47
2023-05-05T02:25:44.423Z,96492.50
2023-05-05T02:27:17.880Z,96493.69
2023-05-05T02:28:51.831Z,96496.78
2023-05-05T02:30:23.688Z,96494.81
2023-05-05T02:31:56.017Z,96490.28
2023-05-05T02:33:28.471Z,96495.00
2023-05-05T02:35:04.671Z,96491.19
2023-05-05T02:36:37.976Z,96497.84
2023-05-05T02:38:13.695Z,96494.63
2023-05-05T02:39:49.807Z,96489.81
2023-05-05T02:41:21.734Z,96488.63
2023-05-05T02:42:57.143Z,96493.50
2023-05-05T02:44:29.253Z,96487.69
2023-05-05T02:46:01.110Z,96482.56
2023-05-05T02:47:36.230Z,96485.81
2023-05-05T02:49:08.092Z,96485.81
2023-05-05T02:50:41.385Z,96487.50
2023-05-05T02:52:13.194Z,96492.31
2023-05-05T02:53:45.212Z,96497.50
2023-05-05T02:55:17.101Z,96495.81
2023-05-05T02:56:49.747Z,96493.91
2023-05-05T02:58:23.697Z,96493.44
2023-05-05T02:59:59.815Z,96493.56
2023-05-05T03:01:43.820Z,96493.56
2023-05-05T03:03:18.517Z,96495.25
2023-05-05T03:04:53.574Z,96497.63
2023-05-05T03:06:27.540Z,96484.97
2023-05-05T03:08:02.070Z,96487.22
2023-05-05T03:09:37.488Z,96492.66
2023-05-05T03:11:15.964Z,96491.00
2023-05-05T03:12:49.910Z,96492.41
2023-05-05T03:14:21.760Z,96494.13
2023-05-05T03:15:53.777Z,96487.03
2023-05-05T03:17:25.981Z,96487.69
2023-05-05T03:18:58.797Z,96492.41
2023-05-05T03:20:30.818Z,96489.72
2023-05-05T03:22:06.519Z,96496.97
2023-05-05T03:23:40.971Z,96490.84
2023-05-05T03:25:18.645Z,96493.47
2023-05-05T03:26:50.835Z,96486.97
2023-05-05T03:28:24.884Z,96498.09
2023-05-05T03:29:56.841Z,96495.66
2023-05-05T03:31:28.880Z,96484.16
2023-05-05T03:33:04.202Z,96483.53
2023-05-05T03:34:37.859Z,96491.13
2023-05-05T03:36:10.790Z,96496.47
2023-05-05T03:37:44.121Z,96489.94
2023-05-05T03:39:18.183Z,96482.81
2023-05-05T03:40:50.177Z,96482.25
2023-05-05T03:42:22.030Z,96482.69
2023-05-05T03:43:53.867Z,96486.91
2023-05-05T03:45:28.178Z,96476.34
2023-05-05T03:47:02.886Z,96477.56
2023-05-05T03:48:36.626Z,96478.59
2023-05-05T03:50:09.445Z,96476.91
2023-05-05T03:51:41.571Z,96469.38
2023-05-05T03:53:14.830Z,96480.22
2023-05-05T03:54:46.691Z,96479.09
2023-05-05T03:56:18.549Z,96484.25
2023-05-05T03:57:50.532Z,96485.38
2023-05-05T03:59:22.345Z,96484.31
2023-05-05T04:00:54.272Z,96491.28
2023-05-05T04:02:32.631Z,96485.09
2023-05-05T04:04:04.992Z,96480.44
2023-05-05T04:06:23.087Z,96496.56
2023-05-05T04:08:18.688Z,96493.03
2023-05-05T04:09:51.765Z,96485.09
2023-05-05T04:11:23.420Z,96492.63
2023-05-05T04:12:55.080Z,96485.50
2023-05-05T04:14:26.819Z,96485.59
2023-05-05T04:15:59.795Z,96490.22
2023-05-05T04:17:31.468Z,96481.50
2023-05-05T04:19:03.938Z,96488.09
2023-05-05T04:20:36.050Z,96492.41
2023-05-05T04:22:07.668Z,96494.81
2023-05-05T04:23:39.276Z,96486.97
2023-05-05T04:25:12.289Z,96477.81
2023-05-05T04:26:43.906Z,96480.09
2023-05-05T04:28:15.912Z,96481.13
2023-05-05T04:29:47.573Z,96481.13
2023-05-05T04:31:19.250Z,96481.13
2023-05-05T04:32:51.023Z,96486.13
2023-05-05T04:34:22.734Z,96490.06
2023-05-05T04:35:54.366Z,96489.31
2023-05-05T04:37:25.957Z,96490.38
2023-05-05T04:38:57.700Z,96497.91
2023-05-05T04:40:31.257Z,96497.88
2023-05-05T04:42:03.106Z,96499.91
2023-05-05T04:43:34.717Z,96507.88
2023-05-05T04:45:07.495Z,96506.41
2023-05-05T04:46:39.163Z,96510.78
2023-05-05T04:48:10.803Z,96508.31
2023-05-05T04:49:42.517Z,96518.31
2023-05-05T04:51:14.253Z,96513.03
2023-05-05T04:52:45.940Z,96518.81
2023-05-05T04:54:17.574Z,96511.84
2023-05-05T04:55:50.633Z,96517.59
2023-05-05T04:57:22.383Z,96509.31
2023-05-05T04:58:54.004Z,96521.91
2023-05-05T05:00:25.637Z,96520.38
2023-05-05T05:01:57.335Z,96521.81
2023-05-05T05:03:29.102Z,96523.31
2023-05-05T05:05:00.835Z,96530.34
2023-05-05T05:06:32.425Z,96526.91
2023-05-05T05:08:04.537Z,96525.31
2023-05-05T05:09:36.152Z,96524.25
2023-05-05T05:11:09.120Z,96516.66
2023-05-05T05:12:40.837Z,96513.69
2023-05-05T05:14:12.418Z,96519.91
2023-05-05T05:15:44.321Z,96531.16
2023-05-05T05:17:16.110Z,96523.13
2023-05-05T05:18:47.820Z,96519.63
2023-05-05T05:20:19.826Z,96527.00
2023-05-05T05:21:51.879Z,96525.63
2023-05-05T05:23:23.520Z,96533.03
2023-05-05T05:24:55.247Z,96533.03
2023-05-05T05:26:28.327Z,96527.75
2023-05-05T05:28:09.689Z,96527.09
2023-05-05T05:29:43.522Z,96535.25
2023-05-05T05:31:15.135Z,96542.16
2023-05-05T05:32:46.817Z,96537.56
2023-05-05T05:34:18.476Z,96545.72
2023-05-05T05:35:50.102Z,96539.28
2023-05-05T05:37:21.672Z,96533.56
2023-05-05T05:38:53.467Z,96541.25
2023-05-05T05:40:25.137Z,96537.19
2023-05-05T05:41:58.099Z,96530.38
2023-05-05T05:43:29.715Z,96538.13
2023-05-05T05:45:01.645Z,96536.97
2023-05-05T05:46:33.351Z,96539.25
2023-05-05T05:48:05.672Z,96548.13
2023-05-05T05:49:37.343Z,96539.75
2023-05-05T05:51:08.973Z,96537.13
2023-05-05T05:52:40.597Z,96536.88
2023-05-05T05:54:12.586Z,96541.91
2023-05-05T05:55:45.857Z,96533.81
2023-05-05T05:57:19.065Z,96543.41
2023-05-05T05:58:50.827Z,96538.63
2023-05-05T06:00:25.310Z,96539.47
2023-05-05T06:01:56.969Z,96534.94
2023-05-05T06:03:28.895Z,96542.66
2023-05-05T06:05:00.690Z,96540.47
2023-05-05T06:06:32.336Z,96542.06
2023-05-05T06:08:04.359Z,96538.97
2023-05-05T06:09:36.081Z,96540.56
2023-05-05T06:11:07.897Z,96547.09
2023-05-05T06:12:40.897Z,96545.19
2023-05-05T06:14:12.591Z,96540.56
2023-05-05T06:15:44.314Z,96534.38
2023-05-05T06:17:16.031Z,96540.50
2023-05-05T06:18:47.730Z,96537.06
2023-05-05T06:20:19.406Z,96538.28
2023-05-05T06:21:51.176Z,96541.38
2023-05-05T06:23:22.766Z,96543.28
2023-05-05T06:24:54.345Z,96547.16
2023-05-05T06:26:26.030Z,96547.88
2023-05-05T06:28:00.060Z,96548.25
2023-05-05T06:29:31.714Z,96543.28
2023-05-05T06:31:03.440Z,96549.41
2023-05-05T06:32:35.134Z,96544.16
2023-05-05T06:34:06.768Z,96551.09
2023-05-05T06:35:38.387Z,96552.16
2023-05-05T06:37:09.965Z,96547.50
2023-05-05T06:38:41.549Z,96550.97
2023-05-05T06:40:13.417Z,96549.06
2023-05-05T06:41:45.003Z,96554.84
2023-05-05T06:43:18.079Z,96551.38
2023-05-05T06:44:49.853Z,96551.75
2023-05-05T06:46:21.870Z,96551.00
2023-05-05T06:47:53.613Z,96551.78
2023-05-05T06:49:25.459Z,96558.34
2023-05-05T06:50:57.363Z,96559.16
2023-05-05T06:52:28.992Z,96554.94
2023-05-05T06:54:00.645Z,96557.25
2023-05-05T06:55:32.309Z,96548.94
2023-05-05T06:57:04.139Z,96551.69
2023-05-05T06:58:38.236Z,96554.38
2023-05-05T07:00:11.599Z,96560.53
2023-05-05T07:01:43.299Z,96551.72
2023-05-05T07:03:15.493Z,96553.28
2023-05-05T07:04:47.488Z,96554.09
2023-05-05T07:06:19.492Z,96553.75
2023-05-05T07:07:52.654Z,96564.91
2023-05-05T07:09:24.390Z,96563.34
2023-05-05T07:10:56.181Z,96563.31
2023-05-05T07:12:29.159Z,96567.59
2023-05-05T07:14:02.323Z,96565.31
2023-05-05T07:15:33.972Z,96561.91
2023-05-05T07:17:05.752Z,96563.13
2023-05-05T07:18:37.427Z,96566.09
2023-05-05T07:20:09.765Z,96570.34
2023-05-05T07:21:42.236Z,96569.69
2023-05-05T07:23:14.116Z,96565.94
2023-05-05T07:24:45.998Z,96566.44
2023-05-05T07:26:17.649Z,96566.47
2023-05-05T07:27:49.410Z,96556.91
2023-05-05T07:29:22.520Z,96563.91
2023-05-05T07:30:54.686Z,96560.75
2023-05-05T07:32:26.412Z,96558.47
2023-05-05T07:33:58.674Z,96561.56
2023-05-05T07:35:30.484Z,96553.19
2023-05-05T07:37:02.394Z,96563.19
2023-05-05T07:38:35.045Z,96560.94
2023-05-05T07:40:08.155Z,96560.63
2023-05-05T07:41:43.924Z,96570.22
2023-05-05T07:43:15.815Z,96558.69
2023-05-05T07:44:48.831Z,96559.09
2023-05-05T07:46:20.590Z,96552.22
2023-05-05T07:47:52.273Z,96553.78
2023-05-05T07:49:23.961Z,96557.97
2023-05-05T07:50:56.166Z,96559.97
2023-05-05T07:52:44.295Z,96560.84
2023-05-05T07:54:19.597Z,96555.06
2023-05-05T07:55:51.321Z,96558.22
2023-05-05T07:57:23.098Z,96553.28
2023-05-05T07:58:55.366Z,96550.63
2023-05-05T08:00:28.364Z,96551.41
2023-05-05T08:02:00.037Z,96545.00
2023-05-05T08:03:31.869Z,96542.75
2023-05-05T08:05:04.633Z,96542.44
2023-05-05T08:06:36.361Z,96547.00
2023-05-05T08:08:08.061Z,96545.91
2023-05-05T08:09:39.833Z,96549.44
2023-05-05T08:11:11.442Z,96546.03
2023-05-05T08:12:43.295Z,96538.00
2023-05-05T08:14:15.595Z,96534.16
2023-05-05T08:15:48.634Z,96539.88
2023-05-05T08:17:20.420Z,96540.34
2023-05-05T08:18:52.333Z,96529.69
2023-05-05T08:20:28.041Z,96535.91
2023-05-05T08:22:01.795Z,96527.97
2023-05-05T08:23:33.602Z,96529.50
2023-05-05T08:25:06.914Z,96533.03
2023-05-05T08:26:39.186Z,96527.31
2023-05-05T08:28:11.090Z,96527.34
2023-05-05T08:29:42.964Z,96526.22
2023-05-05T08:31:16.007Z,96525.03
2023-05-05T08:32:47.706Z,96522.34
2023-05-05T08:34:19.938Z,96527.72
2023-05-05T08:35:51.649Z,96524.66
2023-05-05T08:37:23.311Z,96526.97
2023-05-05T08:38:55.048Z,96530.81
2023-05-05T08:40:30.116Z,96528.13
2023-05-05T08:42:02.390Z,96528.88
2023-05-05T08:43:34.889Z,96528.09
2023-05-05T08:45:08.390Z,96526.94
2023-05-05T08:46:41.902Z,96520.78
2023-05-05T08:48:13.658Z,96524.59
2023-05-05T08:49:46.428Z,96521.47
2023-05-05T08:51:21.488Z,96522.69
2023-05-05T08:52:54.535Z,96514.97
2023-05-05T08:54:26.418Z,96514.59
2023-05-05T08:55:58.070Z,96519.25
2023-05-05T08:57:48.052Z,96518.84
2023-05-05T08:59:19.764Z,96517.31
2023-05-05T09:00:51.781Z,96519.97
2023-05-05T09:02:28.405Z,96519.97
2023-05-05T09:04:00.241Z,96522.97
2023-05-05T09:05:31.899Z,96516.25
2023-05-05T09:07:03.505Z,96512.16
2023-05-05T09:08:35.130Z,96522.94
2023-05-05T09:10:08.309Z,96520.91
2023-05-05T09:11:39.964Z,96510.06
2023-05-05T09:13:11.716Z,96510.25
2023-05-05T09:14:43.563Z,96508.19
2023-05-05T09:16:15.307Z,96505.06
2023-05-05T09:17:51.177Z,96508.00
2023-05-05T09:19:22.886Z,96490.53
2023-05-05T09:20:55.149Z,96496.88
2023-05-05T09:22:36.608Z,96499.47
2023-05-05T09:24:09.388Z,96493.75
2023-05-05T09:25:42.792Z,96496.00
2023-05-05T09:27:21.461Z,96486.34
2023-05-05T09:28:53.522Z,96488.38
2023-05-05T09:30:25.977Z,96490.66
2023-05-05T09:32:08.518Z,96479.84
2023-05-05T09:33:41.958Z,96484.16
2023-05-05T09:35:13.655Z,96480.75
2023-05-05T09:36:47.894Z,96483.81
2023-05-05T09:38:19.782Z,96478.03
2023-05-05T09:39:53.725Z,96466.91
2023-05-05T09:41:36.708Z,96471.63
2023-05-05T09:43:08.566Z,96468.84
2023-05-05T09:44:40.745Z,96473.44
2023-05-05T09:46:13.008Z,96468.63
2023-05-05T09:47:45.739Z,96468.25
2023-05-05T09:49:19.547Z,96462.38
2023-05-05T09:50:51.203Z,96461.88
2023-05-05T09:52:22.971Z,96459.34
2023-05-05T09:53:54.622Z,96463.47
2023-05-05T09:55:26.299Z,96464.13
2023-05-05T09:56:57.950Z,96463.34
2023-05-05T09:58:30.664Z,96461.69
2023-05-05T10:00:04.134Z,96459.06
2023-05-05T10:01:35.924Z,96459.31
2023-05-05T10:03:07.662Z,96462.28
2023-05-05T10:04:40.824Z,96454.50
2023-05-05T10:06:12.516Z,96460.50
2023-05-05T10:07:46.103Z,96458.97
2023-05-05T10:09:17.743Z,96456.50
2023-05-05T10:10:53.209Z,96454.53
2023-05-05T10:12:25.322Z,96453.53
2023-05-05T10:13:57.076Z,96448.56
2023-05-05T10:15:28.676Z,96452.44
2023-05-05T10:17:00.296Z,96458.53
2023-05-05T10:18:32.201Z,96452.22
2023-05-05T10:20:06.963Z,96451.81
2023-05-05T10:21:40.903Z,96446.59
2023-05-05T10:23:15.559Z,96444.88
2023-05-05T10:24:48.418Z,96444.53
2023-05-05T10:26:20.075Z,96439.84
2023-05-05T10:27:53.950Z,96433.81
2023-05-05T10:29:31.403Z,96433.69
2023-05-05T10:31:12.892Z,96428.59
2023-05-05T10:33:04.375Z,96432.56
2023-05-05T10:34:50.891Z,96431.28
2023-05-05T10:36:24.529Z,96431.16
2023-05-05T10:37:57.726Z,96429.09
2023-05-05T10:39:29.349Z,96427.00
2023-05-05T10:41:01.996Z,96431.59
2023-05-05T10:42:33.734Z,96423.19
2023-05-05T10:44:05.894Z,96428.03
2023-05-05T10:45:37.658Z,96432.78
2023-05-05T10:47:09.354Z,96423.47
2023-05-05T10:48:47.156Z,96419.53
2023-05-05T10:50:27.220Z,96417.91
2023-05-05T10:52:05.124Z,96417.91
2023-05-05T10:53:41.324Z,96412.78
2023-05-05T10:55:15.030Z,96412.75
2023-05-05T10:56:46.846Z,96404.38
2023-05-05T10:58:43.748Z,96408.22
2023-05-05T11:00:57.637Z,96404.72
2023-05-05T11:02:29.661Z,96399.81
2023-05-05T11:04:18.179Z,96401.06
2023-05-05T11:06:12.567Z,96386.19
2023-05-05T11:07:46.159Z,96378.31
2023-05-05T11:09:27.839Z,96377.56
2023-05-05T11:10:59.600Z,96373.47
2023-05-05T11:12:32.473Z,96375.47
2023-05-05T11:14:19.480Z,96376.31
2023-05-05T11:15:51.675Z,96371.16
2023-05-05T11:17:44.380Z,96372.97
2023-05-05T11:19:45.861Z,96365.44
2023-05-05T11:21:17.954Z,96360.03
2023-05-05T11:23:25.757Z,96360.50
2023-05-05T11:24:57.480Z,96357.81
2023-05-05T11:26:51.518Z,96359.16
2023-05-05T11:28:25.612Z,96356.47
2023-05-05T11:30:10.447Z,96356.69
2023-05-05T11:31:42.503Z,96360.47
2023-05-05T11:33:23.421Z,96357.44
2023-05-05T11:34:55.071Z,96354.78
2023-05-05T11:36:39.153Z,96353.72
2023-05-05T11:38:10.777Z,96350.25
2023-05-05T11:39:49.914Z,96349.03
2023-05-05T11:41:27.371Z,96352.53
2023-05-05T11:43:05.501Z,96348.16
2023-05-05T11:44:37.404Z,96340.81
2023-05-05T11:46:12.633Z,96341.41
2023-05-05T11:47:44.351Z,96335.53
2023-05-05T11:49:24.111Z,96338.88
2023-05-05T11:50:55.746Z,96336.59
2023-05-05T11:52:27.518Z,96337.34
2023-05-05T11:53:59.396Z,96330.34
2023-05-05T11:55:32.406Z,96340.06
2023-05-05T11:57:10.217Z,96338.75
2023-05-05T11:58:42.009Z,96330.34
2023-05-05T12:00:17.190Z,96334.75
2023-05-05T12:01:48.784Z,96330.47
2023-05-05T12:03:20.501Z,96333.00
2023-05-05T12:04:52.575Z,96341.25
2023-05-05T12:06:24.727Z,96330.31
2023-05-05T12:07:57.735Z,96327.09
2023-05-05T12:09:29.408Z,96336.91
2023-05-05T12:11:06.186Z,96332.00
2023-05-05T12:12:39.432Z,96328.16
2023-05-05T12:14:11.481Z,96337.81
2023-05-05T12:15:43.167Z,96329.09
2023-05-05T12:17:15.007Z,96336.25
2023-05-05T12:18:46.621Z,96326.72
2023-05-05T12:20:18.321Z,96327.56
2023-05-05T12:21:50.013Z,96329.41
2023-05-05T12:23:21.736Z,96332.38
2023-05-05T12:24:55.106Z,96321.69
2023-05-05T12:26:29.150Z,96322.28
2023-05-05T12:28:00.929Z,96330.16
2023-05-05T12:29:32.536Z,96319.84
2023-05-05T12:31:04.326Z,96326.13
2023-05-05T12:32:36.051Z,96323.66
2023-05-05T12:34:08.717Z,96320.75
2023-05-05T12:35:41.571Z,96318.56
2023-05-05T12:37:13.200Z,96317.00
2023-05-05T12:38:44.832Z,96310.97
2023-05-05T12:40:45.073Z,96305.88
2023-05-05T12:42:19.073Z,96307.56
2023-05-05T12:43:54.626Z,96302.44
2023-05-05T12:45:26.435Z,96303.25
2023-05-05T12:46:59.183Z,96296.00
2023-05-05T12:48:31.022Z,96287.50
2023-05-05T12:50:03.410Z,96293.41
2023-05-05T12:51:35.988Z,96295.09
2023-05-05T12:53:07.689Z,96293.06
2023-05-05T12:54:53.585Z,96285.81
2023-05-05T12:56:33.761Z,96283.59
2023-05-05T12:58:07.084Z,96280.44
2023-05-05T12:59:38.716Z,96282.72
2023-05-05T13:01:10.559Z,96286.13
2023-05-05T13:02:42.489Z,96275.69
2023-05-05T13:04:14.430Z,96275.66
2023-05-05T13:05:46.237Z,96278.47
2023-05-05T13:07:19.580Z,96270.06
2023-05-05T13:08:52.036Z,96274.03
2023-05-05T13:10:25.054Z,96268.47
2023-05-05T13:11:56.819Z,96266.25
2023-05-05T13:13:32.065Z,96261.44
2023-05-05T13:15:04.347Z,96264.75
2023-05-05T13:16:36.149Z,96263.97
2023-05-05T13:18:07.801Z,96266.00
2023-05-05T13:19:45.948Z,96258.97
2023-05-05T13:21:17.661Z,96258.56
2023-05-05T13:22:49.416Z,96252.44
2023-05-05T13:24:28.541Z,96253.41
2023-05-05T13:26:06.403Z,96251.13
2023-05-05T13:27:38.012Z,96245.63
2023-05-05T13:29:11.249Z,96244.66
2023-05-05T13:30:42.934Z,96239.47
2023-05-05T13:32:14.557Z,96231.81
2023-05-05T13:33:46.351Z,96228.84
2023-05-05T13:35:18.055Z,96230.06
2023-05-05T13:36:49.907Z,96222.50
2023-05-05T13:38:21.588Z,96216.69
2023-05-05T13:39:55.419Z,96216.88
2023-05-05T13:41:26.983Z,96214.38
2023-05-05T13:42:58.700Z,96214.50
2023-05-05T13:44:32.007Z,96211.56
2023-05-05T13:46:18.698Z,96200.34
2023-05-05T13:47:51.028Z,96203.41
2023-05-05T13:49:22.742Z,96203.06
2023-05-05T13:50:54.364Z,96194.38
2023-05-05T13:52:26.126Z,96187.50
2023-05-05T13:53:57.849Z,96193.09
2023-05-05T13:55:29.857Z,96187.84
2023-05-05T13:57:02.978Z,96183.59
2023-05-05T13:58:37.171Z,96187.56
2023-05-05T14:00:11.918Z,96194.63
2023-05-05T14:01:43.683Z,96193.31
2023-05-05T14:03:15.347Z,96192.66
2023-05-05T14:04:47.207Z,96194.63
2023-05-05T14:06:18.804Z,96193.81
2023-05-05T14:07:50.414Z,96192.50
2023-05-05T14:09:22.396Z,96184.34
2023-05-05T14:10:54.016Z,96186.19
2023-05-05T14:12:25.684Z,96181.53
2023-05-05T14:13:57.664Z,96182.44
2023-05-05T14:15:30.669Z,96185.44
2023-05-05T14:17:02.481Z,96187.53
2023-05-05T14:18:34.247Z,96183.69
2023-05-05T14:20:07.153Z,96183.94
2023-05-05T14:21:38.771Z,96185.88
2023-05-05T14:23:10.387Z,96180.59
2023-05-05T14:24:42.152Z,96176.38
2023-05-05T14:26:13.982Z,96181.78
2023-05-05T14:27:45.936Z,96171.28
2023-05-05T14:29:17.692Z,96171.03
2023-05-05T14:30:50.757Z,96162.75
2023-05-05T14:32:23.119Z,96154.72
2023-05-05T14:33:54.836Z,96148.63
2023-05-05T14:35:26.560Z,96148.16
2023-05-05T14:36:58.253Z,96146.53
2023-05-05T14:38:29.862Z,96150.34
2023-05-05T14:40:03.028Z,96147.81
2023-05-05T14:41:36.006Z,96147.47
2023-05-05T14:43:07.625Z,96146.03
2023-05-05T14:44:39.238Z,96133.72
2023-05-05T14:46:12.307Z,96133.72
2023-05-05T14:47:44.023Z,96129.50
2023-05-05T14:49:15.749Z,96123.72
2023-05-05T14:50:47.405Z,96119.72
2023-05-05T14:52:19.013Z,96116.38
2023-05-05T14:53:50.681Z,96117.16
2023-05-05T14:55:22.329Z,96123.69
2023-05-05T14:56:53.956Z,96122.88
2023-05-05T14:58:25.683Z,96131.34
2023-05-05T14:59:57.330Z,96128.38
2023-05-05T15:01:30.406Z,96131.00
2023-05-05T15:03:02.092Z,96123.22
2023-05-05T15:04:33.809Z,96127.53
2023-05-05T15:06:05.577Z,96131.69
2023-05-05T15:07:37.657Z,96126.88
2023-05-05T15:09:09.575Z,96129.38
2023-05-05T15:10:41.273Z,96127.66
2023-05-05T15:12:12.952Z,96132.84
2023-05-05T15:13:44.575Z,96132.66
2023-05-05T15:15:16.375Z,96132.66
2023-05-05T15:16:49.518Z,96140.38
2023-05-05T15:18:21.284Z,96135.28
2023-05-05T15:19:53.035Z,96138.94
2023-05-05T15:21:24.852Z,96139.09
2023-05-05T15:22:56.664Z,96135.72
2023-05-05T15:24:28.324Z,96139.28
2023-05-05T15:26:00.009Z,96135.63
2023-05-05T15:27:31.827Z,96150.66
2023-05-05T15:29:03.890Z,96143.84
2023-05-05T15:30:35.821Z,96145.97
2023-05-05T15:32:08.837Z,96142.91
2023-05-05T15:33:40.569Z,96135.25
2023-05-05T15:35:12.362Z,96142.16
2023-05-05T15:36:44.012Z,96144.97
2023-05-05T15:38:16.088Z,96145.78
2023-05-05T15:39:47.688Z,96144.19
2023-05-05T15:42:06.157Z,96146.47
2023-05-05T15:43:12.053Z,96148.78
2023-05-05T15:44:44.834Z,96148.16
2023-05-05T15:46:16.548Z,96154.00
2023-05-05T15:47:50.525Z,96154.84
2023-05-05T15:49:22.192Z,96157.16
2023-05-05T15:50:54.332Z,96162.22
2023-05-05T15:52:26.030Z,96164.22
2023-05-05T15:53:57.726Z,96173.66
2023-05-05T15:55:29.749Z,96175.31
2023-05-05T15:57:03.088Z,96170.72
2023-05-05T15:58:34.684Z,96171.84
2023-05-05T16:00:07.889Z,96180.47
2023-05-05T16:01:39.790Z,96184.09
2023-05-05T16:03:12.997Z,96188.84
2023-05-05T16:04:47.951Z,96192.75
2023-05-05T16:06:19.961Z,96192.25
2023-05-05T16:07:55.743Z,96195.53
2023-05-05T16:09:27.526Z,96191.22
2023-05-05T16:10:59.192Z,96191.47
2023-05-05T16:12:30.893Z,96193.13
2023-05-05T16:14:02.655Z,96197.47
2023-05-05T16:15:34.586Z,96209.09
2023-05-05T16:17:07.556Z,96213.81
2023-05-05T16:18:40.793Z,96248.03
2023-05-05T16:20:13.053Z,96270.56
2023-05-05T16:21:44.944Z,96280.13
2023-05-05T16:23:16.818Z,96292.66
2023-05-05T16:24:48.538Z,96283.84
2023-05-05T16:26:22.000Z,96265.84
2023-05-05T16:28:03.085Z,96282.00
2023-05-05T16:29:34.688Z,96277.03
2023-05-05T16:31:06.318Z,96276.25
2023-05-05T16:32:38.101Z,96274.72
2023-05-05T16:34:11.191Z,96262.34
2023-05-05T16:35:43.687Z,96281.19
2023-05-05T16:37:15.540Z,96295.47
2023-05-05T16:38:47.207Z,96299.63
2023-05-05T16:40:19.156Z,96297.00
2023-05-05T16:41:50.824Z,96293.88
2023-05-05T16:43:22.667Z,96323.13
2023-05-05T16:44:54.673Z,96346.16
2023-05-05T16:46:34.372Z,96339.63
2023-05-05T16:48:08.891Z,96347.41
2023-05-05T16:49:42.277Z,96340.47
2023-05-05T16:51:14.090Z,96323.47
2023-05-05T16:52:45.961Z,96328.84
2023-05-05T16:54:17.617Z,96341.16
2023-05-05T16:55:50.040Z,96335.38
2023-05-05T16:57:22.185Z,96331.16
2023-05-05T16:58:53.834Z,96318.09
2023-05-05T17:00:25.770Z,96316.25
2023-05-05T17:01:57.799Z,96297.63
2023-05-05T17:03:29.445Z,96294.13
2023-05-05T17:05:02.517Z,96292.63
2023-05-05T17:06:34.203Z,96274.09
2023-05-05T17:08:05.837Z,96281.84
2023-05-05T17:09:37.478Z,96300.97
2023-05-05T17:11:11.488Z,96308.00
2023-05-05T17:12:43.574Z,96313.34
2023-05-05T17:14:15.298Z,96313.06
2023-05-05T17:15:46.971Z,96321.81
2023-05-05T17:17:18.617Z,96322.53
2023-05-05T17:18:50.278Z,96332.69
2023-05-05T17:20:23.492Z,96344.59
2023-05-05T17:21:55.232Z,96356.16
2023-05-05T17:23:27.151Z,96363.44
2023-05-05T17:24:59.020Z,96383.31
2023-05-05T17:26:30.810Z,96381.81
2023-05-05T17:28:02.795Z,96377.69
2023-05-05T17:29:39.362Z,96385.72
2023-05-05T17:31:11.030Z,96380.84
2023-05-05T17:32:42.736Z,96378.53
2023-05-05T17:34:14.371Z,96390.38
2023-05-05T17:35:47.367Z,96388.06
2023-05-05T17:37:19.047Z,96389.88
2023-05-05T17:38:50.721Z,96386.81
2023-05-05T17:40:22.618Z,96382.31
2023-05-05T17:41:54.323Z,96377.34
2023-05-05T17:43:25.924Z,96371.25
2023-05-05T17:44:57.556Z,96375.09
2023-05-05T17:46:29.221Z,96378.16
2023-05-05T17:48:00.873Z,96383.19
2023-05-05T17:49:32.624Z,96375.41
2023-05-05T17:51:05.735Z,96386.94
2023-05-05T17:52:37.383Z,96388.06
2023-05-05T17:54:09.098Z,96383.16
2023-05-05T17:55:44.578Z,96386.66
2023-05-05T17:57:20.929Z,96382.41
2023-05-05T17:58:53.126Z,96389.28
2023-05-05T18:00:25.034Z,96389.22
2023-05-05T18:01:56.647Z,96390.47
2023-05-05T18:03:28.485Z,96391.56
2023-05-05T18:05:04.084Z,96401.91
2023-05-05T18:06:38.701Z,96397.38
2023-05-05T18:08:10.634Z,96404.25
2023-05-05T18:09:45.334Z,96398.06
2023-05-05T18:11:39.367Z,96401.91
2023-05-05T18:13:16.831Z,96395.78
2023-05-05T18:14:49.587Z,96394.34
2023-05-05T18:16:22.506Z,96396.53
2023-05-05T18:17:56.213Z,96401.84
2023-05-05T18:19:31.167Z,96401.16